Time;durP1;ratioP1;P1;durP2;ratioP2;P2;SDS_P1;SDS_P2;PMS_P1;PMS_P2;Temp;Humidity;BMP_temperature;BMP_pressure;BME280_temperature;BME280_humidity;BME280_pressure;Samples;Min_cycle;Max_cycle;Signal;HPM_P1;HPM_P2
2023/11/07 00:00:12;;;;;;;4.90;1.40;;;7.50;99.90;;;;;;4956925;29;20031;-95
2023/11/07 00:02:39;;;;;;;3.88;1.30;;;7.50;99.90;;;;;;4955769;28;20102;-94
2023/11/07 00:05:05;;;;;;;7.53;2.00;;;7.50;99.90;;;;;;4955080;28;20027;-94
2023/11/07 00:07:30;;;;;;;5.13;1.60;;;7.50;99.90;;;;;;4971241;28;20019;-94
2023/11/07 00:09:56;;;;;;;10.90;3.38;;;7.50;99.90;;;;;;4955345;28;20111;-93
2023/11/07 00:12:22;;;;;;;12.35;4.72;;;7.50;99.90;;;;;;4952992;28;20339;-94
2023/11/07 00:14:48;;;;;;;6.22;1.55;;;7.50;99.90;;;;;;4953076;28;20028;-95
2023/11/07 00:17:13;;;;;;;7.32;1.63;;;7.50;99.90;;;;;;4970588;28;20062;-94
2023/11/07 00:19:39;;;;;;;8.85;1.63;;;7.50;99.90;;;;;;4954746;28;20078;-93
2023/11/07 00:22:05;;;;;;;8.07;1.67;;;7.50;99.90;;;;;;4953587;28;20032;-94
2023/11/07 00:24:30;;;;;;;9.75;1.63;;;7.50;99.90;;;;;;4971550;28;20041;-94
2023/11/07 00:26:59;;;;;;;5.38;1.40;;;7.50;99.90;;;;;;4955010;29;20027;-94
2023/11/07 00:29:28;;;;;;;8.30;1.80;;;7.60;99.90;;;;;;4970815;28;20027;-93
2023/11/07 00:31:54;;;;;;;9.55;1.60;;;7.50;99.90;;;;;;4954274;29;20055;-95
2023/11/07 00:34:20;;;;;;;9.02;1.63;;;7.60;99.90;;;;;;4970625;28;20019;-93
2023/11/07 00:36:46;;;;;;;10.30;1.83;;;7.60;99.90;;;;;;4952969;29;20028;-93
2023/11/07 00:39:16;;;;;;;8.88;1.85;;;7.60;99.90;;;;;;4970693;28;20473;-94
2023/11/07 00:41:42;;;;;;;11.40;1.90;;;7.60;99.90;;;;;;4955895;28;20112;-96
2023/11/07 00:44:07;;;;;;;7.38;1.30;;;7.60;99.90;;;;;;4969696;28;20051;-92
2023/11/07 00:46:33;;;;;;;5.78;1.35;;;7.60;99.90;;;;;;4970416;28;20023;-93
2023/11/07 00:48:59;;;;;;;10.18;1.90;;;7.60;99.90;;;;;;4952888;28;20035;-94
2023/11/07 00:51:25;;;;;;;8.23;1.60;;;7.60;99.90;;;;;;4967905;28;20114;-91
2023/11/07 00:53:51;;;;;;;8.18;1.23;;;7.60;99.90;;;;;;4970141;28;20027;-92
2023/11/07 00:56:17;;;;;;;5.25;1.10;;;7.60;99.90;;;;;;4953190;29;20051;-94
2023/11/07 00:58:47;;;;;;;8.75;1.48;;;7.60;99.90;;;;;;4970702;28;20027;-93
2023/11/07 01:01:16;;;;;;;32.38;3.67;;;7.50;99.90;;;;;;4948661;28;20019;-93
2023/11/07 01:03:41;;;;;;;6.95;1.52;;;7.50;99.90;;;;;;4954995;28;20027;-91
2023/11/07 01:06:07;;;;;;;13.52;2.05;;;7.50;99.90;;;;;;4957278;28;20030;-92
2023/11/07 01:08:33;;;;;;;11.65;1.83;;;7.50;99.90;;;;;;4973687;28;20030;-92
2023/11/07 01:10:58;;;;;;;8.20;1.52;;;7.40;99.90;;;;;;4955957;28;20050;-93
2023/11/07 01:13:24;;;;;;;15.35;1.50;;;7.40;99.90;;;;;;4973428;28;20163;-93
2023/11/07 01:15:50;;;;;;;10.60;1.40;;;7.40;99.90;;;;;;4971124;28;20031;-92
2023/11/07 01:18:16;;;;;;;5.47;1.40;;;7.40;99.90;;;;;;4973322;28;20082;-93
2023/11/07 01:20:41;;;;;;;4.13;1.02;;;7.40;99.90;;;;;;4957276;28;20055;-93
2023/11/07 01:23:07;;;;;;;7.22;1.30;;;7.40;99.90;;;;;;4956855;29;20023;-93
2023/11/07 01:25:33;;;;;;;6.80;1.48;;;7.30;99.90;;;;;;4973186;28;20070;-92
2023/11/07 01:27:58;;;;;;;8.18;1.17;;;7.40;99.90;;;;;;4954104;28;20086;-93
2023/11/07 01:30:24;;;;;;;7.50;1.73;;;7.30;99.90;;;;;;4938856;28;20071;-93
2023/11/07 01:32:50;;;;;;;7.40;1.38;;;7.30;99.90;;;;;;4954790;28;20038;-93
2023/11/07 01:35:17;;;;;;;5.30;1.20;;;7.30;99.90;;;;;;4956001;29;20454;-93
2023/11/07 01:37:42;;;;;;;6.88;1.40;;;7.30;99.90;;;;;;4940208;29;20032;-92
2023/11/07 01:40:09;;;;;;;9.25;2.53;;;7.30;99.90;;;;;;4953882;28;20060;-92
2023/11/07 01:42:48;;;;;;;5.85;1.17;;;7.30;99.90;;;;;;4953775;28;20114;-93
2023/11/07 01:45:14;;;;;;;9.95;1.60;;;7.20;99.90;;;;;;4953091;28;20354;-91
2023/11/07 01:47:45;;;;;;;9.30;1.88;;;7.20;99.90;;;;;;4953228;28;20032;-94
2023/11/07 01:50:12;;;;;;;11.25;1.75;;;7.20;99.90;;;;;;4953427;29;20028;-94
2023/11/07 01:52:39;;;;;;;8.38;1.63;;;7.20;99.90;;;;;;4954493;28;20074;-94
2023/11/07 01:55:13;;;;;;;5.45;1.70;;;7.20;99.90;;;;;;4963006;28;20376;-93
2023/11/07 01:57:44;;;;;;;4.78;1.40;;;7.20;99.90;;;;;;4973476;28;20046;-92
2023/11/07 02:00:12;;;;;;;10.20;1.27;;;7.20;99.90;;;;;;4973186;28;20058;-93
2023/11/07 02:02:39;;;;;;;10.70;2.03;;;7.20;99.90;;;;;;4973402;28;20023;-91
2023/11/07 02:05:09;;;;;;;5.15;1.42;;;7.20;99.90;;;;;;4972937;28;20027;-93
2023/11/07 02:07:35;;;;;;;;;;;7.20;99.90;;;;;;4957196;29;20536;-94
2023/11/07 02:10:01;;;;;;;8.27;1.30;;;7.20;99.90;;;;;;4957620;28;20356;-92
2023/11/07 02:12:27;;;;;;;14.05;1.80;;;7.10;99.90;;;;;;4973002;28;20062;-92
2023/11/07 02:14:53;;;;;;;4.72;1.35;;;7.20;99.90;;;;;;4972858;28;20057;-93
2023/11/07 02:17:19;;;;;;;13.75;1.75;;;7.10;99.90;;;;;;4977782;28;20095;-95
2023/11/07 02:19:45;;;;;;;6.82;1.60;;;7.10;99.90;;;;;;4989689;28;20034;-95
2023/11/07 02:22:12;;;;;;;6.53;1.30;;;7.20;99.90;;;;;;4974732;28;20027;-95
2023/11/07 02:24:38;;;;;;;10.65;1.63;;;7.20;99.90;;;;;;4993015;28;20027;-93
2023/11/07 02:27:06;;;;;;;7.28;1.63;;;7.20;99.90;;;;;;4993600;28;20023;-94
2023/11/07 02:29:32;;;;;;;6.78;1.33;;;7.20;99.90;;;;;;4988022;28;20476;-94
2023/11/07 02:31:59;;;;;;;5.10;1.02;;;7.10;99.90;;;;;;4973443;28;20046;-94
2023/11/07 02:34:25;;;;;;;8.60;1.58;;;7.10;99.90;;;;;;4968660;28;20091;-93
2023/11/07 02:36:51;;;;;;;8.35;1.40;;;7.10;99.90;;;;;;4949858;29;20058;-94
2023/11/07 02:39:17;;;;;;;10.70;1.92;;;7.10;99.90;;;;;;4971486;28;20042;-94
2023/11/07 02:41:44;;;;;;;12.63;2.13;;;7.10;99.90;;;;;;4968237;28;20031;-93
2023/11/07 02:44:13;;;;;;;10.27;1.70;;;7.10;99.90;;;;;;4967546;28;20154;-91
2023/11/07 02:46:39;;;;;;;10.38;2.10;;;7.00;99.90;;;;;;4965612;29;20079;-92
2023/11/07 02:49:05;;;;;;;9.27;1.88;;;7.00;99.90;;;;;;4962883;28;20099;-92
2023/11/07 02:51:32;;;;;;;13.60;1.77;;;7.00;99.90;;;;;;4959248;28;20493;-95
2023/11/07 02:53:58;;;;;;;7.13;1.40;;;7.00;99.90;;;;;;4938082;29;20114;-93
2023/11/07 02:56:28;;;;;;;7.22;1.38;;;6.90;99.90;;;;;;4956259;28;20027;-94
2023/11/07 02:58:54;;;;;;;6.93;2.00;;;6.90;99.90;;;;;;4955893;28;20024;-94
2023/11/07 03:01:21;;;;;;;12.02;2.15;;;6.90;99.90;;;;;;4939880;29;20054;-94
2023/11/07 03:03:48;;;;;;;7.30;1.88;;;6.90;99.90;;;;;;4953614;28;20063;-94
2023/11/07 03:06:14;;;;;;;7.57;1.48;;;6.90;99.90;;;;;;4954316;28;20028;-94
2023/11/07 03:08:40;;;;;;;5.47;1.13;;;6.90;99.90;;;;;;4953240;28;20071;-94
2023/11/07 03:11:06;;;;;;;4.65;1.23;;;6.90;99.90;;;;;;4937220;29;20051;-93
2023/11/07 03:13:34;;;;;;;10.75;1.60;;;6.90;99.90;;;;;;4954168;28;20019;-95
2023/11/07 03:16:06;;;;;;;4.93;1.52;;;6.90;99.90;;;;;;4954731;28;20024;-94
2023/11/07 03:18:32;;;;;;;6.13;1.50;;;6.90;99.90;;;;;;4953898;29;20027;-91
2023/11/07 03:20:58;;;;;;;4.47;1.00;;;6.90;99.90;;;;;;4956087;28;20169;-94
2023/11/07 03:23:24;;;;;;;11.68;1.52;;;6.80;99.90;;;;;;4958745;28;20047;-93
2023/11/07 03:25:51;;;;;;;5.60;0.95;;;6.80;99.90;;;;;;4945385;29;20051;-95
2023/11/07 03:28:20;;;;;;;9.18;1.60;;;6.80;99.90;;;;;;4953656;28;20024;-93
2023/11/07 03:30:46;;;;;;;9.05;1.48;;;6.80;99.90;;;;;;4953675;29;20115;-94
2023/11/07 03:33:12;;;;;;;8.00;1.40;;;6.80;99.90;;;;;;4952497;28;20023;-93
2023/11/07 03:35:38;;;;;;;8.32;1.40;;;6.80;99.90;;;;;;4953445;29;20031;-95
2023/11/07 03:38:04;;;;;;;10.00;1.45;;;6.80;99.90;;;;;;4952842;29;20512;-94
2023/11/07 03:40:29;;;;;;;4.18;1.25;;;6.80;99.90;;;;;;4953448;29;20045;-93
2023/11/07 03:42:55;;;;;;;5.47;1.02;;;6.80;99.90;;;;;;4939668;29;20103;-95
2023/11/07 03:45:21;;;;;;;3.20;1.20;;;6.80;99.90;;;;;;4954560;28;20044;-93
2023/11/07 03:47:46;;;;;;;6.32;1.00;;;6.70;99.90;;;;;;4938135;29;20031;-94
2023/11/07 03:50:12;;;;;;;6.72;1.30;;;6.70;99.90;;;;;;4952494;28;20035;-94
2023/11/07 03:52:38;;;;;;;8.93;1.10;;;6.70;99.90;;;;;;4952630;28;20070;-94
2023/11/07 03:55:04;;;;;;;14.68;3.20;;;6.70;99.90;;;;;;4952475;29;20031;-93
2023/11/07 03:57:29;;;;;;;9.68;1.17;;;6.70;99.90;;;;;;4952849;29;20031;-94
2023/11/07 03:59:55;;;;;;;8.80;1.58;;;6.70;99.90;;;;;;4938563;29;20035;-94
2023/11/07 04:02:21;;;;;;;5.32;1.20;;;6.70;99.90;;;;;;4952965;29;20035;-93
2023/11/07 04:04:48;;;;;;;8.35;1.73;;;6.70;99.90;;;;;;4952158;29;20323;-94
2023/11/07 04:07:15;;;;;;;5.68;1.35;;;6.70;99.90;;;;;;4952100;28;20035;-94
2023/11/07 04:09:41;;;;;;;3.90;0.90;;;6.80;99.90;;;;;;4952367;28;20020;-93
2023/11/07 04:12:07;;;;;;;5.22;0.90;;;6.70;99.90;;;;;;4952083;28;20039;-94
2023/11/07 04:14:32;;;;;;;6.00;1.20;;;6.70;99.90;;;;;;4951996;29;20048;-93
2023/11/07 04:16:59;;;;;;;10.65;1.17;;;6.80;99.90;;;;;;4935768;29;20103;-94
2023/11/07 04:19:25;;;;;;;9.02;1.30;;;6.80;99.90;;;;;;4951903;28;20082;-94
2023/11/07 04:21:50;;;;;;;3.85;1.08;;;6.80;99.90;;;;;;4951440;29;20126;-94
2023/11/07 04:24:16;;;;;;;10.07;1.42;;;6.80;99.90;;;;;;4952119;29;20034;-94
2023/11/07 04:26:42;;;;;;;11.52;2.05;;;6.80;99.90;;;;;;4952112;28;20028;-95
2023/11/07 04:29:07;;;;;;;14.35;1.50;;;6.80;99.90;;;;;;4952030;28;20024;-95
2023/11/07 04:31:33;;;;;;;7.38;1.65;;;6.80;99.90;;;;;;4951776;28;20074;-93
2023/11/07 04:33:59;;;;;;;6.45;1.30;;;6.80;99.90;;;;;;4936792;29;20115;-93
2023/11/07 04:36:25;;;;;;;6.82;1.30;;;6.90;99.90;;;;;;4951376;28;20036;-93
2023/11/07 04:38:51;;;;;;;7.20;1.35;;;6.90;99.90;;;;;;4935573;29;20108;-94
2023/11/07 04:41:16;;;;;;;16.52;2.05;;;6.90;99.90;;;;;;4955587;29;20128;-93
2023/11/07 04:43:44;;;;;;;11.68;2.08;;;6.90;99.90;;;;;;4958756;28;20102;-93
2023/11/07 04:46:12;;;;;;;11.77;2.28;;;6.90;99.90;;;;;;4965492;29;20035;-95
2023/11/07 04:48:38;;;;;;;12.48;1.60;;;7.00;99.90;;;;;;4957560;29;20047;-94
2023/11/07 04:51:05;;;;;;;11.07;1.77;;;7.00;99.90;;;;;;4976298;29;20050;-94
2023/11/07 04:53:32;;;;;;;13.35;2.63;;;7.00;99.90;;;;;;4968894;29;20480;-94
2023/11/07 04:55:58;;;;;;;7.78;1.88;;;7.00;99.90;;;;;;4962263;28;20441;-94
2023/11/07 04:58:25;;;;;;;9.75;1.38;;;7.00;99.90;;;;;;4965500;28;20028;-95
2023/11/07 05:00:54;;;;;;;10.85;1.40;;;7.00;99.90;;;;;;4966729;29;20027;-95
2023/11/07 05:03:21;;;;;;;7.95;1.20;;;7.10;99.90;;;;;;4954983;29;20038;-94
2023/11/07 05:05:48;;;;;;;11.32;1.25;;;7.10;99.90;;;;;;4967530;28;20042;-94
2023/11/07 05:08:14;;;;;;;6.90;1.38;;;7.10;99.90;;;;;;4967101;28;20023;-94
2023/11/07 05:10:40;;;;;;;8.68;1.50;;;7.10;99.90;;;;;;4965415;28;20041;-94
2023/11/07 05:13:06;;;;;;;6.65;1.50;;;7.10;99.90;;;;;;4962423;28;20023;-95
2023/11/07 05:15:32;;;;;;;6.15;1.75;;;7.20;99.90;;;;;;4966889;28;20074;-95
2023/11/07 05:17:58;;;;;;;10.07;1.65;;;7.20;99.90;;;;;;4952180;29;20078;-94
2023/11/07 05:20:23;;;;;;;13.32;1.55;;;7.20;99.90;;;;;;4967504;28;20031;-92
2023/11/07 05:22:49;;;;;;;9.85;1.45;;;7.20;99.90;;;;;;4979980;28;20095;-93
2023/11/07 05:25:15;;;;;;;4.25;1.00;;;7.20;99.90;;;;;;4980835;28;20099;-93
2023/11/07 05:27:41;;;;;;;5.28;1.52;;;7.20;99.90;;;;;;4980466;28;20106;-92
2023/11/07 05:30:07;;;;;;;3.38;1.00;;;7.20;99.90;;;;;;4980175;28;20039;-94
2023/11/07 05:32:33;;;;;;;8.98;1.30;;;7.30;99.90;;;;;;4964741;28;20039;-94
2023/11/07 05:34:59;;;;;;;4.25;1.50;;;7.30;99.90;;;;;;4981087;28;20038;-95
2023/11/07 05:37:24;;;;;;;6.47;1.10;;;7.30;99.90;;;;;;4980773;28;20095;-94
2023/11/07 05:39:50;;;;;;;2.63;1.10;;;7.30;99.90;;;;;;4980827;28;20015;-96
2023/11/07 05:42:16;;;;;;;6.10;1.88;;;7.30;99.90;;;;;;4978662;28;20046;-93
2023/11/07 05:44:42;;;;;;;9.52;1.40;;;7.30;99.90;;;;;;4967644;28;20054;-94
2023/11/07 05:47:07;;;;;;;8.50;1.63;;;7.30;99.90;;;;;;4967164;28;20032;-95
2023/11/07 05:49:35;;;;;;;6.30;1.90;;;7.30;99.90;;;;;;4950517;29;20035;-95
2023/11/07 05:52:01;;;;;;;6.10;1.60;;;7.40;99.90;;;;;;4962523;28;20503;-94
2023/11/07 05:54:26;;;;;;;7.63;1.90;;;7.40;99.90;;;;;;4961643;28;20058;-93
2023/11/07 05:56:52;;;;;;;9.65;2.72;;;7.40;99.90;;;;;;4962237;28;20127;-93
2023/11/07 05:59:18;;;;;;;7.80;1.10;;;7.40;99.90;;;;;;4963048;28;20127;-93
2023/11/07 06:01:44;;;;;;;7.40;1.30;;;7.40;99.90;;;;;;4960891;28;20041;-94
2023/11/07 06:04:28;;;;;;;1.70;1.00;;;7.40;99.90;;;;;;4943592;29;20121;-94
2023/11/07 06:06:55;;;;;;;6.90;1.17;;;7.50;99.90;;;;;;4947657;29;20040;-94
2023/11/07 06:09:20;;;;;;;4.90;0.82;;;7.50;99.90;;;;;;4961550;28;20404;-94
2023/11/07 06:11:46;;;;;;;5.00;1.02;;;7.50;99.90;;;;;;4968253;28;20098;-93
2023/11/07 06:14:11;;;;;;;5.20;1.30;;;7.60;99.90;;;;;;4967134;28;20051;-92
2023/11/07 06:16:40;;;;;;;2.10;1.15;;;7.60;99.90;;;;;;4966287;28;20031;-94
2023/11/07 06:19:06;;;;;;;7.00;2.38;;;7.60;99.90;;;;;;4947887;29;20039;-93
2023/11/07 06:21:32;;;;;;;6.68;1.40;;;7.60;99.90;;;;;;4962546;28;20028;-93
2023/11/07 06:23:57;;;;;;;3.85;1.50;;;7.60;99.90;;;;;;4960488;28;20031;-94
2023/11/07 06:26:23;;;;;;;6.57;1.48;;;7.60;99.90;;;;;;4961118;28;20027;-93
2023/11/07 06:28:49;;;;;;;9.98;1.80;;;7.60;99.90;;;;;;4962742;28;20564;-95
2023/11/07 06:31:26;;;;;;;5.38;2.22;;;7.60;99.90;;;;;;4958071;28;20058;-94
2023/11/07 06:33:51;;;;;;;5.63;1.75;;;7.60;99.90;;;;;;4943899;29;20031;-94
2023/11/07 06:36:17;;;;;;;10.15;2.53;;;7.70;99.90;;;;;;4959703;28;20091;-94
2023/11/07 06:38:43;;;;;;;6.20;2.10;;;7.70;99.90;;;;;;4957620;28;20050;-94
2023/11/07 06:41:08;;;;;;;6.28;1.83;;;7.70;99.90;;;;;;4959962;28;20067;-94
2023/11/07 06:43:35;;;;;;;3.10;1.95;;;7.60;99.90;;;;;;4962579;28;20030;-95
2023/11/07 06:46:02;;;;;;;7.85;2.38;;;7.60;99.90;;;;;;4968400;28;20046;-94
2023/11/07 06:48:28;;;;;;;7.03;2.47;;;7.70;99.90;;;;;;4979846;28;20035;-94
2023/11/07 06:50:54;;;;;;;5.55;2.03;;;7.70;99.90;;;;;;4960193;28;20038;-93
2023/11/07 06:53:20;;;;;;;5.10;2.38;;;7.60;99.90;;;;;;4964420;28;20023;-94
2023/11/07 06:55:46;;;;;;;5.63;3.10;;;7.70;99.90;;;;;;4986598;28;20027;-93
2023/11/07 06:58:12;;;;;;;9.93;4.25;;;7.60;99.90;;;;;;4982438;28;20051;-93
2023/11/07 07:00:40;;;;;;;7.65;2.97;;;7.60;99.90;;;;;;4976890;28;20019;-93
2023/11/07 07:03:06;;;;;;;10.48;2.95;;;7.60;99.90;;;;;;4984020;28;20018;-93
2023/11/07 07:05:33;;;;;;;6.78;3.20;;;7.60;99.90;;;;;;4972245;28;20095;-93
2023/11/07 07:08:00;;;;;;;6.85;3.20;;;7.60;99.90;;;;;;4985594;28;20053;-93
2023/11/07 07:10:26;;;;;;;15.50;4.38;;;7.60;99.90;;;;;;4988060;28;20118;-94
2023/11/07 07:12:53;;;;;;;14.57;3.80;;;7.60;99.90;;;;;;4993257;28;20042;-93
2023/11/07 07:15:19;;;;;;;8.68;3.60;;;7.60;99.90;;;;;;4994422;28;20029;-93
2023/11/07 07:17:45;;;;;;;7.45;3.35;;;7.60;99.90;;;;;;4994617;28;20011;-93
2023/11/07 07:20:13;;;;;;;10.43;3.60;;;7.60;99.90;;;;;;4997979;28;20049;-94
2023/11/07 07:22:41;;;;;;;7.80;3.70;;;7.60;99.90;;;;;;4977317;28;20512;-94
2023/11/07 07:25:08;;;;;;;7.10;3.47;;;7.60;99.90;;;;;;4990700;28;20027;-93
2023/11/07 07:27:34;;;;;;;7.20;4.00;;;7.60;99.90;;;;;;4992674;28;20019;-94
2023/11/07 07:30:06;;;;;;;10.45;5.22;;;7.60;99.90;;;;;;4990783;28;20014;-93
2023/11/07 07:32:35;;;;;;;14.30;6.10;;;7.60;99.90;;;;;;4980407;28;20023;-92
2023/11/07 07:35:09;;;;;;;13.57;4.97;;;7.70;99.90;;;;;;4993867;28;20027;-93
2023/11/07 07:37:35;;;;;;;11.80;5.13;;;7.60;99.90;;;;;;4987270;28;20492;-93
2023/11/07 07:40:00;;;;;;;10.68;5.15;;;7.70;99.90;;;;;;4960891;28;20027;-92
2023/11/07 07:42:28;;;;;;;7.68;4.25;;;7.70;99.90;;;;;;4959727;28;20037;-94
2023/11/07 07:44:54;;;;;;;9.43;3.58;;;7.70;99.90;;;;;;4960404;28;20128;-94
2023/11/07 07:47:19;;;;;;;9.32;3.58;;;7.70;99.90;;;;;;4949386;28;20056;-94
2023/11/07 07:49:46;;;;;;;9.52;4.40;;;7.70;99.90;;;;;;4956840;28;20034;-93
2023/11/07 07:52:12;;;;;;;7.68;3.95;;;7.70;99.90;;;;;;4964250;28;20064;-94
2023/11/07 07:54:38;;;;;;;6.47;3.67;;;7.70;99.90;;;;;;4977492;28;20054;-93
2023/11/07 07:57:08;;;;;;;6.85;4.70;;;7.70;99.90;;;;;;4962708;28;20045;-92
2023/11/07 07:59:40;;;;;;;12.05;5.43;;;7.70;99.90;;;;;;4960174;28;20019;-94
2023/11/07 08:02:07;;;;;;;10.50;5.18;;;7.70;99.90;;;;;;4965230;28;20027;-93
2023/11/07 08:04:32;;;;;;;12.88;5.55;;;7.70;99.90;;;;;;4961396;28;20109;-93
2023/11/07 08:06:58;;;;;;;12.13;5.43;;;7.80;99.90;;;;;;4963348;28;20473;-94
2023/11/07 08:09:24;;;;;;;8.63;4.93;;;7.80;99.90;;;;;;4960151;28;20492;-92
2023/11/07 08:11:53;;;;;;;13.48;5.78;;;7.80;99.90;;;;;;4965198;28;20043;-93
2023/11/07 08:14:20;;;;;;;8.98;6.50;;;7.80;99.90;;;;;;4962844;28;20026;-93
2023/11/07 08:16:46;;;;;;;10.93;6.00;;;7.80;99.90;;;;;;4986753;28;20070;-95
2023/11/07 08:19:12;;;;;;;9.23;5.53;;;7.80;99.90;;;;;;5000249;28;20030;-93
2023/11/07 08:21:38;;;;;;;11.27;5.18;;;7.80;99.90;;;;;;4970550;28;20448;-93
2023/11/07 08:24:06;;;;;;;13.45;6.07;;;7.80;99.90;;;;;;4949913;29;20095;-94
2023/11/07 08:26:33;;;;;;;11.00;5.57;;;7.90;99.90;;;;;;4965329;28;20031;-93
2023/11/07 08:29:00;;;;;;;10.07;5.35;;;7.90;99.90;;;;;;4958265;28;20038;-93
2023/11/07 08:31:26;;;;;;;7.88;5.40;;;7.90;99.90;;;;;;4955878;28;20035;-93
2023/11/07 08:33:52;;;;;;;10.13;5.75;;;7.90;99.90;;;;;;4959302;28;20054;-93
2023/11/07 08:36:19;;;;;;;11.25;6.00;;;8.00;99.90;;;;;;4963730;28;20027;-93
2023/11/07 08:38:45;;;;;;;13.52;6.57;;;8.00;99.90;;;;;;4977358;28;20495;-93
2023/11/07 08:41:11;;;;;;;11.93;6.97;;;8.00;99.90;;;;;;4962208;28;20039;-91
2023/11/07 08:43:37;;;;;;;13.80;7.53;;;8.00;99.90;;;;;;4976970;28;20038;-93
2023/11/07 08:46:05;;;;;;;14.93;7.18;;;8.00;99.90;;;;;;4979079;28;20031;-93
2023/11/07 08:48:31;;;;;;;14.13;8.30;;;8.00;99.90;;;;;;4976910;28;20504;-94
2023/11/07 08:50:57;;;;;;;14.88;7.80;;;8.00;99.90;;;;;;4975964;28;20043;-93
2023/11/07 08:53:22;;;;;;;13.68;7.78;;;8.00;99.90;;;;;;4973928;28;20106;-94
2023/11/07 08:55:51;;;;;;;15.40;7.43;;;8.00;99.90;;;;;;4966127;28;20070;-94
2023/11/07 08:58:19;;;;;;;13.85;7.47;;;8.00;99.90;;;;;;4984182;28;20035;-94
2023/11/07 09:00:45;;;;;;;12.40;6.38;;;8.00;99.90;;;;;;4979654;28;20118;-95
2023/11/07 09:03:11;;;;;;;17.20;7.82;;;8.00;99.90;;;;;;4976014;28;20495;-95
2023/11/07 09:05:40;;;;;;;15.57;6.80;;;8.10;99.90;;;;;;4977777;28;20059;-94
2023/11/07 09:08:05;;;;;;;10.85;7.25;;;8.10;99.90;;;;;;4975589;28;20027;-93
2023/11/07 09:10:34;;;;;;;8.77;6.32;;;8.10;99.90;;;;;;4978775;28;20034;-94
2023/11/07 09:12:59;;;;;;;11.23;5.60;;;8.10;99.90;;;;;;4976092;28;20058;-94
2023/11/07 09:15:25;;;;;;;7.28;4.93;;;8.10;99.90;;;;;;4960772;28;20169;-94
2023/11/07 09:17:51;;;;;;;13.82;5.85;;;8.10;99.90;;;;;;4958771;28;20603;-94
2023/11/07 09:20:18;;;;;;;9.88;5.45;;;8.20;99.90;;;;;;4975646;28;20033;-94
2023/11/07 09:22:44;;;;;;;15.93;5.70;;;8.10;99.90;;;;;;4978624;28;20031;-94
2023/11/07 09:25:11;;;;;;;12.90;6.90;;;8.20;99.90;;;;;;4980733;28;20023;-94
2023/11/07 09:27:37;;;;;;;13.70;7.13;;;8.20;99.90;;;;;;4978578;28;20035;-94
2023/11/07 09:30:09;;;;;;;10.35;6.07;;;8.20;99.90;;;;;;4981196;28;20090;-95
2023/11/07 09:32:44;;;;;;;14.73;6.80;;;8.20;99.90;;;;;;4967034;28;20034;-95
2023/11/07 09:35:11;;;;;;;11.02;6.60;;;8.30;99.90;;;;;;4964638;28;20042;-96
2023/11/07 09:37:39;;;;;;;12.75;5.95;;;8.30;99.90;;;;;;4953564;28;20035;-95
2023/11/07 09:40:17;;;;;;;12.35;6.22;;;8.40;99.90;;;;;;4958237;28;20111;-94
2023/11/07 09:42:44;;;;;;;10.77;5.80;;;8.50;99.90;;;;;;4958407;28;20380;-94
2023/11/07 09:45:14;;;;;;;11.63;6.70;;;8.60;99.90;;;;;;4955940;28;20130;-93
2023/11/07 09:47:45;;;;;;;13.88;7.65;;;8.70;99.90;;;;;;4958514;28;20031;-95
2023/11/07 09:50:12;;;;;;;;;;;8.80;99.90;;;;;;4980169;28;20037;-96
2023/11/07 09:52:39;;;;;;;17.13;8.15;;;8.80;99.90;;;;;;4964888;28;19921;-93
2023/11/07 09:55:08;;;;;;;20.48;8.93;;;8.80;99.90;;;;;;4978491;28;20027;-92
2023/11/07 09:58:05;;;;;;;15.40;8.38;;;8.80;99.90;;;;;;4961552;28;20034;-95
2023/11/07 10:00:33;;;;;;;17.60;9.10;;;8.90;99.90;;;;;;4960300;28;20023;-92
2023/11/07 10:03:00;;;;;;;15.80;8.75;;;8.90;99.90;;;;;;4944695;28;20097;-93
2023/11/07 10:05:26;;;;;;;19.58;8.25;;;8.90;99.90;;;;;;4958431;29;20128;-95
2023/11/07 10:07:52;;;;;;;11.27;7.03;;;8.90;99.90;;;;;;4975753;28;20102;-94
2023/11/07 10:10:18;;;;;;;11.27;6.40;;;8.90;99.90;;;;;;4978133;28;20050;-94
2023/11/07 10:12:45;;;;;;;12.95;6.30;;;8.90;99.90;;;;;;4977389;28;20027;-95
2023/11/07 10:15:21;;;;;;;15.45;6.60;;;9.00;99.90;;;;;;4979584;28;20031;-94
2023/11/07 10:17:59;;;;;;;20.48;7.53;;;9.00;99.90;;;;;;4980348;28;20022;-94
2023/11/07 10:20:30;;;;;;;12.02;7.05;;;9.10;99.90;;;;;;4976536;28;20027;-94
2023/11/07 10:22:57;;;;;;;17.55;7.63;;;9.10;99.90;;;;;;4971130;28;20027;-94
2023/11/07 10:25:32;;;;;;;16.65;7.13;;;9.10;99.90;;;;;;4959783;28;20035;-94
2023/11/07 10:28:02;;;;;;;14.70;7.63;;;9.20;99.90;;;;;;4959902;28;20062;-94
2023/11/07 10:30:42;;;;;;;18.95;7.13;;;9.50;99.90;;;;;;4976113;28;20134;-94
2023/11/07 10:33:11;;;;;;;13.98;6.95;;;9.90;99.90;;;;;;4944242;29;20035;-94
2023/11/07 10:35:56;;;;;;;11.10;5.88;;;10.10;99.90;;;;;;4959696;28;20118;-94
2023/11/07 10:38:23;;;;;;;16.98;7.65;;;10.10;99.90;;;;;;4974849;28;20030;-94
2023/11/07 10:40:49;;;;;;;13.52;7.60;;;10.10;99.90;;;;;;4976353;28;20027;-93
2023/11/07 10:43:37;;;;;;;12.50;6.78;;;10.00;99.90;;;;;;4943531;28;20121;-94
2023/11/07 10:46:11;;;;;;;13.80;7.35;;;10.00;99.90;;;;;;4963274;29;20035;-95
2023/11/07 10:48:41;;;;;;;16.23;6.22;;;10.10;99.90;;;;;;4983924;28;20038;-95
2023/11/07 10:51:14;;;;;;;9.50;5.40;;;10.40;99.90;;;;;;4973338;28;20050;-95
2023/11/07 10:53:42;;;;;;;12.30;5.43;;;10.60;99.90;;;;;;4956829;29;20043;-94
2023/11/07 10:56:13;;;;;;;13.25;5.80;;;10.90;99.90;;;;;;4963174;28;20046;-95
2023/11/07 10:58:52;;;;;;;12.27;5.47;;;11.00;99.90;;;;;;4949271;29;20065;-94
2023/11/07 11:01:22;;;;;;;8.88;3.72;;;11.10;99.90;;;;;;4969476;28;20066;-94
2023/11/07 11:03:52;;;;;;;11.02;3.60;;;11.00;99.90;;;;;;4966420;28;20056;-94
2023/11/07 11:06:23;;;;;;;12.82;4.13;;;11.00;99.90;;;;;;4966628;28;20054;-94
2023/11/07 11:08:53;;;;;;;9.00;3.60;;;10.90;99.90;;;;;;4959609;29;20028;-94
2023/11/07 11:11:20;;;;;;;5.32;3.20;;;10.80;99.90;;;;;;4958425;29;20493;-92
2023/11/07 11:13:47;;;;;;;14.80;4.35;;;10.80;99.90;;;;;;4959379;28;20097;-94
2023/11/07 11:16:14;;;;;;;5.93;2.25;;;10.80;99.90;;;;;;4980126;28;20054;-96
2023/11/07 11:18:49;;;;;;;8.20;2.05;;;10.70;99.90;;;;;;4981180;28;20027;-94
2023/11/07 11:21:31;;;;;;;9.98;2.03;;;10.60;99.90;;;;;;4982166;28;20027;-95
2023/11/07 11:24:06;;;;;;;5.85;1.38;;;10.50;99.90;;;;;;4983158;28;20031;-94
2023/11/07 11:26:38;;;;;;;7.03;1.70;;;10.50;99.90;;;;;;4981323;28;20027;-94
2023/11/07 11:29:24;;;;;;;5.68;1.30;;;10.60;99.90;;;;;;4948234;28;20042;-94
2023/11/07 11:31:50;;;;;;;5.22;1.17;;;10.80;99.90;;;;;;4948041;28;20047;-95
2023/11/07 11:34:28;;;;;;;11.32;1.20;;;11.10;99.90;;;;;;4954950;28;20129;-95
2023/11/07 11:37:01;;;;;;;10.98;1.95;;;11.30;99.90;;;;;;4955363;28;20508;-94
2023/11/07 11:39:26;;;;;;;6.65;1.50;;;11.50;99.90;;;;;;4955338;28;20038;-93
2023/11/07 11:41:58;;;;;;;6.75;1.08;;;11.70;99.90;;;;;;4942057;28;20019;-94
2023/11/07 11:44:27;;;;;;;4.63;1.10;;;12.00;99.90;;;;;;4973768;28;20137;-94
2023/11/07 11:46:56;;;;;;;4.93;0.90;;;12.00;99.90;;;;;;4974749;28;20492;-94
2023/11/07 11:49:23;;;;;;;7.35;1.02;;;12.00;99.90;;;;;;4958740;28;20026;-95
2023/11/07 11:51:53;;;;;;;7.18;0.93;;;11.90;99.90;;;;;;4958626;28;20034;-94
2023/11/07 11:54:24;;;;;;;10.52;1.27;;;11.70;99.90;;;;;;4972892;28;20022;-94
2023/11/07 11:56:51;;;;;;;4.25;0.98;;;11.50;99.90;;;;;;4958354;28;20045;-94
2023/11/07 11:59:25;;;;;;;4.97;1.17;;;11.30;99.90;;;;;;4967667;28;20035;-96
2023/11/07 12:02:04;;;;;;;7.43;1.70;;;11.30;99.90;;;;;;4970501;28;20046;-96
2023/11/07 12:04:48;;;;;;;6.00;1.20;;;11.40;99.90;;;;;;4948235;29;20035;-94
2023/11/07 12:07:14;;;;;;;8.63;1.40;;;11.40;99.90;;;;;;4963463;28;20027;-96
2023/11/07 12:09:42;;;;;;;3.17;0.70;;;11.50;99.90;;;;;;4961798;28;20027;-95
2023/11/07 12:12:09;;;;;;;4.07;0.90;;;11.70;99.90;;;;;;4957778;28;20035;-95
2023/11/07 12:14:58;;;;;;;13.85;2.10;;;11.90;99.90;;;;;;4971346;28;20019;-94
2023/11/07 12:17:26;;;;;;;3.90;0.82;;;12.30;99.90;;;;;;4970869;28;20089;-95
2023/11/07 12:20:07;;;;;;;5.30;0.88;;;12.90;99.90;;;;;;4970314;28;20118;-95
2023/11/07 12:22:36;;;;;;;5.55;1.48;;;13.30;99.90;;;;;;4949628;28;20031;-94
2023/11/07 12:25:13;;;;;;;6.22;1.85;;;13.60;99.90;;;;;;4968584;28;20031;-96
2023/11/07 12:28:02;;;;;;;5.00;1.55;;;13.60;99.90;;;;;;4956933;28;20123;-95
2023/11/07 12:30:28;;;;;;;4.18;0.95;;;13.30;99.90;;;;;;4949179;28;20046;-93
2023/11/07 12:33:04;;;;;;;2.75;0.77;;;12.90;99.90;;;;;;4970608;28;20026;-95
2023/11/07 12:35:30;;;;;;;6.82;1.05;;;12.40;99.90;;;;;;4965909;28;20118;-95
2023/11/07 12:38:03;;;;;;;4.95;0.70;;;12.00;99.90;;;;;;4969228;28;20125;-94
2023/11/07 12:40:29;;;;;;;2.70;0.88;;;11.70;99.90;;;;;;4965829;28;20031;-94
2023/11/07 12:42:56;;;;;;;10.10;0.98;;;11.40;99.90;;;;;;4965479;28;20480;-94
2023/11/07 12:45:30;;;;;;;9.18;2.08;;;11.20;99.90;;;;;;4966262;28;20047;-94
2023/11/07 12:47:57;;;;;;;4.15;0.95;;;11.10;99.90;;;;;;4971533;28;20052;-96
2023/11/07 12:50:23;;;;;;;13.43;1.20;;;11.10;99.90;;;;;;4983767;28;20046;-96
2023/11/07 12:52:57;;;;;;;7.30;1.30;;;11.20;99.90;;;;;;4975939;28;20399;-95
2023/11/07 12:55:26;;;;;;;8.52;1.48;;;11.30;99.90;;;;;;4956587;28;20038;-96